Time;durP1;ratioP1;P1;durP2;ratioP2;P2;SDS_P1;SDS_P2;PMS_P1;PMS_P2;Temp;Humidity;BMP_temperature;BMP_pressure;BME280_temperature;BME280_humidity;BME280_pressure;Samples;Min_cycle;Max_cycle;Signal;HPM_P1;HPM_P2
2022/11/02 00:04:17;;;;;;;10.97;2.67;;;17.10;99.90;;;;;;7279825;79;26305;-50
2022/11/02 00:14:20;;;;;;;17.70;2.70;;;17.10;99.90;;;;;;7329038;79;27134;-50
2022/11/02 00:24:22;;;;;;;16.20;3.03;;;17.10;99.90;;;;;;7264632;79;26267;-52
2022/11/02 00:34:25;;;;;;;11.13;3.30;;;17.10;99.90;;;;;;7300660;79;26285;-51
2022/11/02 00:44:27;;;;;;;7.07;2.33;;;17.10;99.90;;;;;;7342384;79;26339;-50
2022/11/02 00:54:30;;;;;;;17.77;3.00;;;17.00;99.90;;;;;;7347459;79;26807;-49
2022/11/02 01:04:32;;;;;;;8.10;2.37;;;17.00;99.90;;;;;;7330433;79;26330;-51
2022/11/02 01:14:35;;;;;;;15.00;2.87;;;17.00;99.90;;;;;;7354156;79;26324;-49
2022/11/02 01:24:37;;;;;;;12.07;3.37;;;17.00;99.90;;;;;;7346265;79;26352;-46
2022/11/02 01:34:40;;;;;;;14.83;2.90;;;17.00;99.90;;;;;;7355199;79;26776;-50
2022/11/02 01:44:43;;;;;;;13.97;2.83;;;17.00;99.90;;;;;;7360881;79;26341;-49
2022/11/02 01:54:57;;;;;;;9.87;3.23;;;17.00;99.90;;;;;;7357344;79;26289;-48
2022/11/02 02:05:08;;;;;;;6.80;2.10;;;17.00;99.90;;;;;;7363960;79;26309;-49
2022/11/02 02:15:11;;;;;;;11.30;2.50;;;17.00;99.90;;;;;;7356871;79;26854;-49
2022/11/02 02:25:20;;;;;;;12.63;2.63;;;17.00;99.90;;;;;;7360828;79;26344;-47
2022/11/02 02:35:31;;;;;;;8.23;2.53;;;16.90;99.90;;;;;;7351666;79;26367;-47
2022/11/02 02:45:39;;;;;;;12.43;3.00;;;16.90;99.90;;;;;;7353122;79;26330;-49
2022/11/02 02:55:45;;;;;;;12.13;2.87;;;16.90;99.90;;;;;;7355959;79;26703;-49
2022/11/02 03:06:05;;;;;;;9.43;2.53;;;16.90;99.90;;;;;;7354121;79;26987;-48
2022/11/02 03:16:17;;;;;;;5.53;2.07;;;16.90;99.90;;;;;;7356354;79;26294;-48
2022/11/02 03:26:28;;;;;;;6.63;2.00;;;16.90;99.90;;;;;;7352508;79;26794;-47
2022/11/02 03:36:35;;;;;;;7.60;2.20;;;16.90;99.90;;;;;;7348165;79;26960;-49
2022/11/02 03:46:40;;;;;;;7.27;2.20;;;17.00;99.90;;;;;;7357614;79;26440;-47
2022/11/02 03:56:46;;;;;;;12.20;3.37;;;17.00;99.90;;;;;;7361044;79;26784;-50
2022/11/02 04:06:49;;;;;;;10.37;2.00;;;17.00;99.90;;;;;;7359936;79;26295;-51
2022/11/02 04:19:29;;;;;;;12.83;3.33;;;17.00;99.90;;;;;;7361847;79;26922;-49
2022/11/02 04:26:58;;;;;;;11.80;2.80;;;16.80;99.90;;;;;;7277470;79;27090;-49
2022/11/02 04:38:39;;;;;;;7.30;2.30;;;16.90;99.90;;;;;;7295531;79;26336;-49
2022/11/02 04:47:05;;;;;;;7.97;3.87;;;16.90;99.90;;;;;;7279920;79;26356;-51
2022/11/02 04:57:07;;;;;;;9.70;2.77;;;16.90;99.90;;;;;;7277509;79;26301;-49
2022/11/02 05:07:11;;;;;;;6.47;1.83;;;16.80;99.90;;;;;;7278522;79;26300;-50
2022/11/02 05:17:15;;;;;;;7.57;2.03;;;16.90;99.90;;;;;;7284854;79;26876;-52
2022/11/02 05:27:17;;;;;;;8.33;2.57;;;16.70;99.90;;;;;;7320741;79;26350;-48
2022/11/02 05:37:20;;;;;;;7.90;2.23;;;16.70;99.90;;;;;;7356050;79;27084;-47
2022/11/02 05:47:22;;;;;;;10.07;3.07;;;16.70;99.90;;;;;;7355280;79;26383;-47
2022/11/02 05:57:25;;;;;;;10.10;2.30;;;16.60;99.90;;;;;;7351755;79;26301;-47
2022/11/02 06:07:27;;;;;;;13.43;2.43;;;16.60;99.90;;;;;;7358045;79;27266;-49
2022/11/02 06:17:33;;;;;;;15.67;2.13;;;16.60;99.90;;;;;;7359724;79;26372;-49
2022/11/02 06:27:36;;;;;;;16.50;2.80;;;16.60;99.90;;;;;;7343383;79;26305;-47
2022/11/02 06:37:38;;;;;;;7.67;2.20;;;16.60;99.90;;;;;;7328928;79;26282;-47
2022/11/02 06:47:41;;;;;;;13.73;2.53;;;16.60;99.90;;;;;;7357779;79;26425;-49
2022/11/02 06:57:44;;;;;;;17.07;4.43;;;16.60;99.90;;;;;;7341295;79;26356;-47
2022/11/02 07:07:46;;;;;;;25.43;6.87;;;16.60;99.90;;;;;;7296504;79;26356;-49
2022/11/02 07:17:49;;;;;;;33.17;5.93;;;16.70;99.90;;;;;;7303754;79;26399;-47
2022/11/02 07:27:51;;;;;;;14.30;4.30;;;16.70;99.90;;;;;;7354595;79;27140;-48
2022/11/02 07:37:58;;;;;;;17.50;4.23;;;16.70;99.90;;;;;;7342232;79;26372;-48
2022/11/02 07:48:01;;;;;;;15.17;4.20;;;16.80;99.90;;;;;;7355662;79;26296;-47
2022/11/02 07:58:06;;;;;;;14.80;3.97;;;16.80;99.90;;;;;;7347502;79;26439;-48
2022/11/02 08:08:13;;;;;;;15.73;4.00;;;16.80;99.90;;;;;;7345678;79;26383;-47
2022/11/02 08:18:18;;;;;;;9.73;4.13;;;16.90;99.90;;;;;;7371718;78;26423;-47
2022/11/02 08:28:27;;;;;;;10.80;3.47;;;16.90;99.90;;;;;;7351154;79;26287;-48
2022/11/02 08:38:29;;;;;;;10.43;3.10;;;16.90;99.90;;;;;;7349075;79;26325;-47
2022/11/02 08:48:32;;;;;;;10.97;3.33;;;17.10;99.90;;;;;;7357746;79;26356;-48
2022/11/02 08:58:35;;;;;;;7.97;2.70;;;17.30;99.90;;;;;;7345578;79;26432;-51
2022/11/02 09:08:37;;;;;;;7.07;3.00;;;17.50;99.90;;;;;;7346708;79;26462;-47
2022/11/02 09:18:40;;;;;;;8.30;2.83;;;17.60;99.90;;;;;;7347181;79;26936;-47
2022/11/02 09:28:42;;;;;;;8.40;2.53;;;17.60;99.90;;;;;;7348457;79;26383;-49
2022/11/02 09:38:45;;;;;;;10.20;2.90;;;17.70;99.90;;;;;;7347182;79;26376;-48
2022/11/02 09:48:54;;;;;;;15.53;3.17;;;17.80;99.90;;;;;;7348551;79;26865;-50
2022/11/02 09:59:05;;;;;;;7.23;2.73;;;17.90;99.90;;;;;;7351941;79;26320;-49
2022/11/02 10:09:14;;;;;;;8.87;2.70;;;17.90;99.90;;;;;;7364381;79;26294;-49
2022/11/02 10:19:19;;;;;;;7.33;2.17;;;18.00;99.90;;;;;;7349260;79;26329;-48
2022/11/02 10:29:59;;;;;;;11.10;3.07;;;17.90;99.90;;;;;;7352898;79;26321;-48
2022/11/02 10:40:17;;;;;;;7.67;2.23;;;18.00;99.90;;;;;;7348881;79;27200;-48
2022/11/02 10:50:41;;;;;;;7.57;2.13;;;18.00;99.90;;;;;;7353857;79;26293;-49
2022/11/02 11:00:46;;;;;;;8.73;2.27;;;18.00;99.90;;;;;;7346666;79;26727;-48
2022/11/02 11:10:49;;;;;;;8.70;2.30;;;18.00;99.90;;;;;;7354118;79;26395;-49
2022/11/02 11:20:54;;;;;;;8.57;2.40;;;18.00;99.90;;;;;;7360071;79;26890;-48
2022/11/02 11:31:12;;;;;;;6.37;2.13;;;18.00;99.90;;;;;;7353876;79;26394;-48
2022/11/02 11:41:14;;;;;;;14.20;2.60;;;18.00;99.90;;;;;;7348530;79;26950;-48
2022/11/02 11:51:29;;;;;;;8.23;2.40;;;18.00;99.90;;;;;;7359231;79;26400;-51
2022/11/02 12:01:39;;;;;;;6.73;1.83;;;18.00;99.90;;;;;;7356659;79;26318;-48
2022/11/02 12:11:53;;;;;;;8.03;1.97;;;18.00;99.90;;;;;;7360041;79;26306;-47
2022/11/02 12:22:04;;;;;;;5.40;1.50;;;18.00;99.90;;;;;;7354762;79;26329;-48
2022/11/02 12:32:31;;;;;;;4.53;1.93;;;18.00;99.90;;;;;;7347774;79;26395;-48
2022/11/02 12:42:37;;;;;;;8.30;2.03;;;18.00;99.90;;;;;;7343775;79;26372;-51
2022/11/02 12:53:00;;;;;;;4.53;1.40;;;18.00;99.90;;;;;;7350123;79;26360;-50
2022/11/02 13:03:09;;;;;;;5.20;1.87;;;18.00;99.90;;;;;;7347668;79;27614;-48
2022/11/02 13:13:17;;;;;;;6.30;1.60;;;18.00;99.90;;;;;;7346983;79;26427;-52
2022/11/02 13:23:35;;;;;;;7.70;1.90;;;18.00;99.90;;;;;;7346853;79;26392;-50
2022/11/02 13:33:43;;;;;;;5.60;1.50;;;18.00;99.90;;;;;;7341527;79;26346;-50
2022/11/02 13:44:04;;;;;;;5.17;1.57;;;18.00;99.90;;;;;;7349665;79;26624;-49
2022/11/02 13:54:27;;;;;;;4.97;1.80;;;18.00;99.90;;;;;;7348258;79;27613;-49
2022/11/02 14:04:38;;;;;;;6.27;1.87;;;18.00;99.90;;;;;;7349718;79;26334;-50
2022/11/02 14:14:41;;;;;;;4.47;1.40;;;18.00;99.90;;;;;;7359162;79;26419;-49
2022/11/02 14:24:52;;;;;;;4.27;1.30;;;17.90;99.90;;;;;;7356518;79;26834;-49
2022/11/02 14:35:20;;;;;;;6.43;1.43;;;17.90;99.90;;;;;;7354726;79;26410;-48
2022/11/02 14:45:26;;;;;;;6.23;1.50;;;17.90;99.90;;;;;;7357138;79;26405;-49
2022/11/02 14:55:33;;;;;;;7.77;1.70;;;17.80;99.90;;;;;;7355686;79;26814;-50
2022/11/02 15:05:39;;;;;;;5.90;1.70;;;17.80;99.90;;;;;;7352348;79;26372;-49
2022/11/02 15:15:41;;;;;;;6.53;1.40;;;17.80;99.90;;;;;;7359388;79;26319;-50
2022/11/02 15:25:49;;;;;;;5.00;1.57;;;17.70;99.90;;;;;;7351947;79;26380;-49
2022/11/02 15:35:53;;;;;;;7.47;1.67;;;17.70;99.90;;;;;;7369639;79;26289;-49
2022/11/02 15:46:02;;;;;;;4.67;1.33;;;17.70;99.90;;;;;;7357983;79;26407;-49
2022/11/02 15:56:25;;;;;;;7.03;1.60;;;17.70;99.90;;;;;;7353951;79;26290;-49
2022/11/02 16:06:42;;;;;;;7.57;1.47;;;17.60;99.90;;;;;;7350990;79;26290;-49
2022/11/02 16:16:48;;;;;;;4.07;1.40;;;17.60;99.90;;;;;;7366023;79;26329;-49
2022/11/02 16:26:51;;;;;;;5.87;1.30;;;17.60;99.90;;;;;;7346099;79;26353;-51
2022/11/02 16:36:54;;;;;;;4.93;1.60;;;17.50;99.90;;;;;;7355596;79;26438;-49
2022/11/02 16:47:08;;;;;;;7.80;2.17;;;17.50;99.90;;;;;;7360676;79;26295;-49
2022/11/02 16:57:16;;;;;;;4.20;1.40;;;17.50;99.90;;;;;;7355472;79;26301;-48
2022/11/02 17:07:22;;;;;;;6.53;1.50;;;17.40;99.90;;;;;;7353940;79;26309;-48
2022/11/02 17:17:31;;;;;;;5.60;1.60;;;17.40;99.90;;;;;;7354276;79;26673;-49
2022/11/02 17:27:33;;;;;;;3.90;1.50;;;17.30;99.90;;;;;;7352891;79;26402;-48
2022/11/02 17:37:36;;;;;;;10.30;2.30;;;17.30;99.90;;;;;;7351600;79;26301;-49
2022/11/02 17:47:39;;;;;;;7.73;2.40;;;17.20;99.90;;;;;;7351062;79;26426;-48
2022/11/02 17:57:41;;;;;;;5.63;1.90;;;17.20;99.90;;;;;;7351009;79;26304;-49
2022/11/02 18:07:44;;;;;;;5.50;1.77;;;17.20;99.90;;;;;;7354208;79;26399;-48
2022/11/02 18:17:46;;;;;;;4.57;1.87;;;17.10;99.90;;;;;;7361099;79;26477;-50
2022/11/02 18:27:49;;;;;;;4.87;1.73;;;17.10;99.90;;;;;;7356090;79;26417;-52
2022/11/02 18:37:52;;;;;;;4.43;1.87;;;17.00;99.90;;;;;;7355780;79;26296;-50
2022/11/02 18:47:57;;;;;;;6.03;2.20;;;17.00;99.90;;;;;;7353303;79;26406;-49
2022/11/02 18:57:59;;;;;;;5.87;1.90;;;17.00;99.90;;;;;;7355454;79;26812;-51
2022/11/02 19:18:22;;;;;;;3.53;1.70;;;16.90;99.90;;;;;;7355116;79;26352;-50
2022/11/02 19:28:25;;;;;;;6.00;1.83;;;16.90;99.90;;;;;;7356251;79;26922;-50
2022/11/02 19:38:27;;;;;;;3.13;1.50;;;16.80;99.90;;;;;;7357476;79;26381;-49
2022/11/02 19:48:31;;;;;;;5.40;1.63;;;16.80;99.90;;;;;;7350964;79;26388;-49
2022/11/02 19:58:34;;;;;;;11.40;3.30;;;16.70;99.90;;;;;;7350252;79;27386;-48
2022/11/02 20:08:36;;;;;;;4.90;2.53;;;16.70;99.90;;;;;;7353159;79;26685;-47
2022/11/02 20:18:41;;;;;;;8.67;2.30;;;16.70;99.90;;;;;;7354682;79;26388;-48
2022/11/02 20:28:46;;;;;;;6.67;2.13;;;16.60;99.90;;;;;;7349818;79;26409;-49
2022/11/02 20:38:50;;;;;;;5.60;2.37;;;16.60;99.90;;;;;;7350155;79;26341;-48
2022/11/02 20:48:53;;;;;;;3.67;1.77;;;16.50;99.90;;;;;;7351159;79;26302;-50
2022/11/02 20:58:55;;;;;;;3.90;1.80;;;16.50;99.90;;;;;;7353875;79;26335;-48
2022/11/02 21:09:04;;;;;;;4.63;2.00;;;16.50;99.90;;;;;;7352455;79;26822;-50
2022/11/02 21:19:05;;;;;;;7.03;1.90;;;16.50;99.90;;;;;;7351043;79;26277;-49
2022/11/02 21:29:08;;;;;;;5.40;2.00;;;16.40;99.90;;;;;;7353235;79;26735;-49
2022/11/02 21:39:10;;;;;;;4.57;1.80;;;16.40;99.90;;;;;;7351892;79;26833;-48
2022/11/02 21:49:13;;;;;;;3.97;1.60;;;16.40;99.90;;;;;;7353053;79;26379;-50
2022/11/02 21:59:15;;;;;;;4.53;1.77;;;16.40;99.90;;;;;;7353560;79;26306;-50
2022/11/02 22:09:18;;;;;;;3.23;1.50;;;16.40;99.90;;;;;;7352116;79;26360;-50
2022/11/02 22:19:20;;;;;;;5.17;1.83;;;16.30;99.90;;;;;;7352132;79;26379;-48
2022/11/02 22:29:23;;;;;;;5.20;1.50;;;16.30;99.90;;;;;;7361047;79;26344;-49
2022/11/02 22:39:25;;;;;;;4.83;1.73;;;16.30;99.90;;;;;;7352481;79;26834;-49
2022/11/02 22:49:28;;;;;;;6.00;2.20;;;16.20;99.90;;;;;;7351334;79;26364;-48
2022/11/02 22:59:30;;;;;;;7.73;1.50;;;16.20;99.90;;;;;;7356418;79;26301;-47
2022/11/02 23:09:33;;;;;;;5.70;2.00;;;16.10;99.90;;;;;;7355224;79;26791;-49
2022/11/02 23:19:37;;;;;;;5.93;2.07;;;16.10;99.90;;;;;;7352407;79;26394;-48
2022/11/02 23:39:59;;;;;;;4.87;2.00;;;16.10;99.90;;;;;;7348875;79;26361;-49
2022/11/02 23:50:02;;;;;;;3.87;1.67;;;16.10;99.90;;;;;;7355247;79;26865;-48
